Ride Results

Greenhills (11-08-2018)
Ride distance: 80.0 km

Outcomes - Greenhills (11-08-2018)
Division No. of Entries Retired / DNE Completed Withdrawn Ineligible V/O Percentage Completed
HW 7 - 5 - - 2 71.43%
MW 8 - 6 - - 2 75.00%
LW 11 - 11 - - - 100.00%
JN 1 - 0 - - 1 0.00%
Totals 27 - 22 - - 5 81.48%
Results - Greenhills (11-08-2018)
No. Rider Horse Place Time Leg Speeds Total
Km/Hr
H/R bpm
Heavyweight
6 Dave Radford Eleazar Orion 1 5:15:00 18.3, 13.0 15.24 38, 41, 48 (Avg:44)
24 Caren Earl Comanche 2 6:05:00 14.8, 11.8 13.15 32, 48, 52 (Avg:50)
1 Alistair McKeown Tora Muros 3 6:45:00 12.9, 10.9 11.85 44, 49, 59 (Avg:54)
23 Jess Meares Cardininup Marri 4 7:21:00 11.3, 10.4 10.88 36, 50, 53 (Avg:51)
27 Emma Swarbrick Redline Heaven Can Wait 5 7:24:00 11.3, 10.3 10.81 32, 39, 40 (Avg:39)
22 Anna Erickson Texas Johann Lame L1 3:31:00 11.3 11.37 32, 40 (Avg:40)
16 John Anderson Marbling Galaxy Lame L1 3:37:00 11.0 11.06 34, 41 (Avg:41)
Middleweight
13 Ricci Adlam Al Shafiq JPA 1 5:15:00 18.3, 13.0 15.24 32, 45, 49 (Avg:47)
7 Shirley O'Donoghue Chrissy Popsicle 1 5:15:00 18.3, 13.0 15.24 36, 48, 49 (Avg:48)
12 Crystal Piggott Anvil Grove Cadenza 3 5:34:00 16.4, 12.7 14.37 38, 43, 47 (Avg:45)
8 Cassie Mulcahy Eleazar Sharym 4 6:36:00 13.0, 11.3 12.12 34, 42, 44 (Avg:43)
14 Cassie Turvey Jejucha Xtacee 5 7:26:00 10.7, 10.8 10.76 36, 45, 49 (Avg:47)
15 Kylie Van Uden Bling It On 5 7:26:00 10.7, 10.8 10.76 28, 39, 38 (Avg:38)
17 Susie Anderson Eva Luna Lame L2 7:39:00 11.0, 9.9 10.46 35, 43, 48 (Avg:45)
11 Richard Summerfield Arabika Cue Tee Lame L1 2:41:00 14.9 14.91 33, 38 (Avg:38)
Lightweight
5 Lisa Clarke Royal Bay 1 4:56:00 19.3, 13.9 16.22 44, 54, 51 (Avg:52)
21 Linda Dix Ebony's Savannah Rose 2 5:33:00 17.0, 12.4 14.41 44, 42, 42 (Avg:42)
19 Ruth Morley Mariba Ashwani 2 5:33:00 17.0, 12.4 14.41 30, 52, 46 (Avg:49)
29 Jodie McKell Eleazar Ramarkable 4 5:54:00 15.7, 11.8 13.56 36, 45, 47 (Avg:46)
4 Kylie Day Deep Forest El Kahdahr 5 6:05:00 14.8, 11.8 13.15 30, 42, 46 (Avg:44)
26 Claudia Seke West Coast Mehira 5 6:05:00 14.8, 11.8 13.15 28, 36, 37 (Avg:36)
R1 Kirsten Melis Woodybrook Houdini 7 6:30:00 12.6, 11.9 12.31 38, 43, 52 (Avg:47)
9 Liz Mulcahy Noran Maxamillion 8 6:36:00 13.0, 11.3 12.12 40, 42, 46 (Avg:44)
20 Kerry Moody Hot Rod 9 6:51:00 12.1, 11.2 11.68 39, 50, 59 (Avg:54)
10 Lyn Summerfield Kholonial Farrington 9 6:51:00 12.1, 11.2 11.68 29, 40, 44 (Avg:42)
18 Darcy Harry Eleazar Razzamatazz 11 7:39:00 11.0, 9.9 10.46 34, 40, 43 (Avg:41)
Junior
28 Mandri Reinecke Mystic Valley Special Edition Lame L2 7:24:00 11.3, 10.3 10.81 36, 51, 58 (Avg:54)